Time;durP1;ratioP1;P1;durP2;ratioP2;P2;SDS_P1;SDS_P2;PMS_P1;PMS_P2;Temp;Humidity;BMP_temperature;BMP_pressure;BME280_temperature;BME280_humidity;BME280_pressure;Samples;Min_cycle;Max_cycle;Signal;HPM_P1;HPM_P2
2021/03/26 00:00:52;;;;;;;56.63;34.75;;;;;;;;;;5095754;28;20038;-75
2021/03/26 00:03:23;;;;;;;53.00;32.22;;;;;;;;;;5097224;28;20527;-75
2021/03/26 00:05:51;;;;;;;63.90;38.28;;;;;;;;;;5095672;28;20583;-76
2021/03/26 00:08:17;;;;;;;57.17;34.63;;;;;;;;;;5096964;28;20064;-75
2021/03/26 00:10:43;;;;;;;58.25;34.47;;;;;;;;;;5095509;28;20123;-75
2021/03/26 00:13:10;;;;;;;68.90;38.60;;;;;;;;;;5095417;28;20028;-75
2021/03/26 00:15:36;;;;;;;69.35;39.03;;;;;;;;;;5096919;28;20039;-75
2021/03/26 00:18:03;;;;;;;59.25;36.25;;;;;;;;;;5096767;28;20036;-75
2021/03/26 00:20:28;;;;;;;59.70;35.25;;;;;;;;;;5096682;28;20047;-75
2021/03/26 00:22:53;;;;;;;54.00;32.92;;;;;;;;;;5096605;28;20032;-75
2021/03/26 00:25:19;;;;;;;52.95;31.20;;;;;;;;;;5078173;28;20478;-75
2021/03/26 00:27:44;;;;;;;49.20;29.10;;;;;;;;;;5094308;28;20105;-75
2021/03/26 00:30:12;;;;;;;47.95;29.80;;;;;;;;;;5096323;28;20040;-75
2021/03/26 00:32:38;;;;;;;63.40;34.33;;;;;;;;;;5096511;28;20032;-75
2021/03/26 00:35:07;;;;;;;60.45;34.47;;;;;;;;;;5096383;28;20032;-75
2021/03/26 00:37:32;;;;;;;55.95;34.28;;;;;;;;;;5095691;28;20051;-75
2021/03/26 00:39:58;;;;;;;62.85;37.05;;;;;;;;;;5096189;28;20032;-75
2021/03/26 00:42:23;;;;;;;54.97;32.72;;;;;;;;;;5096284;28;20481;-75
2021/03/26 00:44:49;;;;;;;50.35;32.13;;;;;;;;;;5077612;28;20024;-76
2021/03/26 00:47:14;;;;;;;47.90;29.65;;;;;;;;;;5094906;28;20035;-75
2021/03/26 00:49:40;;;;;;;50.22;28.70;;;;;;;;;;5096405;28;20059;-76
2021/03/26 00:52:07;;;;;;;56.58;30.40;;;;;;;;;;5094764;28;20031;-75
2021/03/26 00:54:33;;;;;;;52.05;30.88;;;;;;;;;;5094742;28;20024;-75
2021/03/26 00:56:58;;;;;;;52.95;31.42;;;;;;;;;;5095479;28;20032;-75
2021/03/26 00:59:25;;;;;;;60.22;36.10;;;;;;;;;;5095173;28;20039;-75
2021/03/26 01:01:50;;;;;;;57.55;33.13;;;;;;;;;;5095466;28;20028;-75
2021/03/26 01:04:16;;;;;;;60.13;32.83;;;;;;;;;;5095874;28;20040;-75
2021/03/26 01:06:41;;;;;;;53.97;30.67;;;;;;;;;;5094645;28;20397;-75
2021/03/26 01:09:07;;;;;;;51.60;31.20;;;;;;;;;;5094486;28;20039;-75
2021/03/26 01:11:36;;;;;;;49.00;30.08;;;;;;;;;;5095783;28;20032;-75
2021/03/26 01:14:10;;;;;;;47.28;29.40;;;;;;;;;;5094009;28;20020;-75
2021/03/26 01:16:36;;;;;;;52.13;30.83;;;;;;;;;;5095433;28;20057;-75
2021/03/26 01:19:02;;;;;;;50.15;31.40;;;;;;;;;;5095356;28;20063;-75
2021/03/26 01:21:30;;;;;;;47.60;30.05;;;;;;;;;;5094406;28;20128;-75
2021/03/26 01:23:57;;;;;;;47.63;28.70;;;;;;;;;;5094163;28;20119;-75
2021/03/26 01:26:24;;;;;;;44.67;28.13;;;;;;;;;;5094086;28;20074;-76
2021/03/26 01:28:56;;;;;;;45.95;27.65;;;;;;;;;;5093938;28;20138;-76
2021/03/26 01:31:33;;;;;;;44.60;29.53;;;;;;;;;;5093681;28;20474;-75
2021/03/26 01:34:01;;;;;;;47.05;28.40;;;;;;;;;;5095323;28;20028;-75
2021/03/26 01:36:28;;;;;;;47.67;29.80;;;;;;;;;;5095210;28;20058;-75
2021/03/26 01:38:53;;;;;;;49.38;29.20;;;;;;;;;;5094415;28;20044;-75
2021/03/26 01:41:22;;;;;;;53.13;33.08;;;;;;;;;;5094108;28;20086;-75
2021/03/26 01:43:48;;;;;;;51.08;32.88;;;;;;;;;;5093406;28;20042;-75
2021/03/26 01:46:16;;;;;;;57.92;33.78;;;;;;;;;;5095041;28;20028;-75
2021/03/26 01:48:49;;;;;;;53.75;32.08;;;;;;;;;;5094932;28;20401;-75
2021/03/26 01:51:38;;;;;;;47.50;28.80;;;;;;;;;;5093629;28;20032;-75
2021/03/26 01:54:07;;;;;;;51.53;31.08;;;;;;;;;;5093308;28;20111;-75
2021/03/26 01:56:34;;;;;;;60.08;35.10;;;;;;;;;;5093044;28;20044;-75
2021/03/26 01:59:17;;;;;;;62.50;35.47;;;;;;;;;;5078714;28;20036;-75
2021/03/26 02:01:47;;;;;;;64.25;35.63;;;;;;;;;;5092990;28;20063;-75
2021/03/26 02:04:22;;;;;;;53.42;32.50;;;;;;;;;;5093555;28;20028;-75
2021/03/26 02:06:50;;;;;;;;;;;;;;;;;;5076785;28;20066;-75
2021/03/26 02:09:17;;;;;;;;;;;;;;;;;;5093525;28;19916;-75
2021/03/26 02:12:04;;;;;;;51.85;31.05;;;;;;;;;;5093790;28;19937;-75
2021/03/26 02:14:35;;;;;;;57.17;32.63;;;;;;;;;;5094373;28;20035;-75
2021/03/26 02:17:01;;;;;;;53.08;32.15;;;;;;;;;;5093013;28;20036;-75
2021/03/26 02:19:47;;;;;;;54.20;33.35;;;;;;;;;;5094377;28;20496;-75
2021/03/26 02:22:15;;;;;;;56.75;33.60;;;;;;;;;;5093177;28;20051;-75
2021/03/26 02:24:47;;;;;;;50.60;30.58;;;;;;;;;;5092856;28;20047;-75
2021/03/26 02:27:23;;;;;;;46.60;29.77;;;;;;;;;;5093970;28;20170;-75
2021/03/26 02:29:49;;;;;;;43.65;27.73;;;;;;;;;;5092729;28;20027;-75
2021/03/26 02:32:32;;;;;;;39.55;24.33;;;;;;;;;;5092645;28;20024;-74
2021/03/26 02:35:22;;;;;;;35.75;23.75;;;;;;;;;;5092836;28;20389;-75
2021/03/26 02:37:56;;;;;;;38.47;25.20;;;;;;;;;;5092413;28;20055;-75
2021/03/26 02:40:28;;;;;;;45.40;26.88;;;;;;;;;;5092837;28;20073;-75
2021/03/26 02:43:02;;;;;;;39.60;25.17;;;;;;;;;;5092186;28;20088;-74
2021/03/26 02:45:35;;;;;;;44.50;27.83;;;;;;;;;;5094006;28;20040;-75
2021/03/26 02:48:13;;;;;;;47.10;28.55;;;;;;;;;;5092790;28;20082;-75
2021/03/26 02:50:47;;;;;;;;;;;;;;;;;;5093160;28;20386;-74
2021/03/26 02:53:25;;;;;;;54.65;33.00;;;;;;;;;;5092650;28;19949;-75
2021/03/26 02:56:02;;;;;;;59.97;33.22;;;;;;;;;;5092328;28;20031;-75
2021/03/26 02:58:39;;;;;;;57.28;33.80;;;;;;;;;;5092244;28;20028;-75
2021/03/26 03:01:13;;;;;;;59.55;34.53;;;;;;;;;;5092367;28;20038;-74
2021/03/26 03:03:41;;;;;;;49.40;31.10;;;;;;;;;;5092574;28;20095;-75
2021/03/26 03:06:19;;;;;;;56.92;33.33;;;;;;;;;;5093467;28;20036;-75
2021/03/26 03:09:11;;;;;;;60.53;35.65;;;;;;;;;;5093454;28;20054;-75
2021/03/26 03:11:49;;;;;;;49.25;30.50;;;;;;;;;;5092263;28;20477;-75
2021/03/26 03:14:26;;;;;;;46.28;27.60;;;;;;;;;;5093294;28;20035;-75
2021/03/26 03:17:01;;;;;;;43.57;26.60;;;;;;;;;;5092130;28;20032;-75
2021/03/26 03:19:56;;;;;;;43.33;26.42;;;;;;;;;;5092334;28;20478;-75
2021/03/26 03:22:29;;;;;;;43.42;23.95;;;;;;;;;;5092055;28;20591;-74
2021/03/26 03:25:01;;;;;;;37.00;22.83;;;;;;;;;;5092013;28;20127;-75
2021/03/26 03:27:31;;;;;;;35.58;24.23;;;;;;;;;;5093082;28;20051;-75
2021/03/26 03:30:18;;;;;;;36.45;24.58;;;;;;;;;;5091776;28;20389;-75
2021/03/26 03:32:48;;;;;;;45.65;28.58;;;;;;;;;;5093396;28;20355;-74
2021/03/26 03:35:37;;;;;;;51.17;29.02;;;;;;;;;;5091724;28;20040;-74
2021/03/26 03:38:33;;;;;;;45.35;25.63;;;;;;;;;;5091677;28;20489;-74
2021/03/26 03:41:12;;;;;;;42.38;24.67;;;;;;;;;;5091987;28;20126;-74
2021/03/26 03:44:12;;;;;;;62.35;32.63;;;;;;;;;;5091585;28;20032;-75
2021/03/26 03:47:23;;;;;;;43.97;27.95;;;;;;;;;;5091933;28;20028;-75
2021/03/26 03:50:19;;;;;;;44.38;26.67;;;;;;;;;;5086224;28;20050;-75
2021/03/26 03:53:01;;;;;;;48.65;29.60;;;;;;;;;;5075044;28;20032;-76
2021/03/26 03:55:34;;;;;;;50.72;30.17;;;;;;;;;;5092965;28;20032;-76
2021/03/26 03:58:18;;;;;;;50.65;28.92;;;;;;;;;;5091803;28;20036;-74
2021/03/26 04:00:59;;;;;;;49.95;31.23;;;;;;;;;;5091774;28;20459;-75
2021/03/26 04:03:38;;;;;;;46.92;29.50;;;;;;;;;;5091702;28;20374;-75
2021/03/26 04:06:22;;;;;;;51.35;30.67;;;;;;;;;;5091448;28;20109;-74
2021/03/26 04:08:59;;;;;;;51.65;31.67;;;;;;;;;;5093184;28;20088;-75
2021/03/26 04:11:35;;;;;;;48.35;29.58;;;;;;;;;;5092979;28;20039;-75
2021/03/26 04:14:32;;;;;;;46.03;28.55;;;;;;;;;;5091498;28;20039;-74
2021/03/26 04:17:03;;;;;;;47.63;29.25;;;;;;;;;;5092487;28;20047;-74
2021/03/26 04:19:38;;;;;;;52.72;27.73;;;;;;;;;;5091469;28;20028;-74
2021/03/26 04:22:07;;;;;;;48.92;28.15;;;;;;;;;;5093020;28;20051;-74
2021/03/26 04:25:09;;;;;;;48.08;29.83;;;;;;;;;;5091491;28;20048;-75
2021/03/26 04:27:41;;;;;;;46.83;30.70;;;;;;;;;;5092442;28;20493;-75
2021/03/26 04:30:30;;;;;;;47.97;30.45;;;;;;;;;;5092655;28;20040;-75
2021/03/26 04:33:09;;;;;;;46.30;29.70;;;;;;;;;;5091539;28;20081;-75
2021/03/26 04:35:35;;;;;;;53.08;31.65;;;;;;;;;;5093758;28;20036;-73
2021/03/26 04:38:10;;;;;;;47.35;29.42;;;;;;;;;;5096236;28;20032;-74
2021/03/26 04:40:43;;;;;;;54.80;31.67;;;;;;;;;;5095220;28;20032;-76
2021/03/26 04:43:25;;;;;;;46.53;29.67;;;;;;;;;;5094592;28;20036;-74
2021/03/26 04:46:05;;;;;;;46.97;28.15;;;;;;;;;;5094940;28;20031;-75
2021/03/26 04:49:05;;;;;;;45.38;28.30;;;;;;;;;;5095091;28;20035;-75
2021/03/26 04:51:59;;;;;;;45.40;31.15;;;;;;;;;;5094753;28;20054;-75
2021/03/26 04:54:45;;;;;;;60.70;34.55;;;;;;;;;;5094401;28;20020;-75
2021/03/26 04:57:45;;;;;;;62.17;37.60;;;;;;;;;;5095816;28;20044;-75
2021/03/26 05:00:23;;;;;;;60.65;35.28;;;;;;;;;;5094335;28;20043;-75
2021/03/26 05:03:00;;;;;;;51.95;30.55;;;;;;;;;;5095609;28;20031;-75
2021/03/26 05:05:27;;;;;;;47.80;31.98;;;;;;;;;;5094609;28;20032;-75
2021/03/26 05:08:05;;;;;;;45.25;30.33;;;;;;;;;;5094462;28;20035;-75
2021/03/26 05:10:37;;;;;;;44.45;28.63;;;;;;;;;;5077337;28;20040;-75
2021/03/26 05:13:25;;;;;;;38.92;25.45;;;;;;;;;;5093442;28;20024;-75
2021/03/26 05:15:59;;;;;;;39.55;26.23;;;;;;;;;;5094109;28;20031;-75
2021/03/26 05:18:40;;;;;;;38.03;24.92;;;;;;;;;;5094243;28;20063;-75
2021/03/26 05:21:29;;;;;;;43.25;25.73;;;;;;;;;;5094173;28;20036;-75
2021/03/26 05:24:44;;;;;;;41.50;27.08;;;;;;;;;;5086632;28;20059;-75
2021/03/26 05:27:28;;;;;;;36.42;24.45;;;;;;;;;;5095010;28;20055;-75
2021/03/26 05:29:55;;;;;;;48.67;27.88;;;;;;;;;;5093722;28;20181;-75
2021/03/26 05:32:37;;;;;;;39.58;25.77;;;;;;;;;;5093991;28;20512;-75
2021/03/26 05:35:12;;;;;;;37.40;23.85;;;;;;;;;;5095430;28;20048;-75
2021/03/26 05:38:27;;;;;;;38.60;24.58;;;;;;;;;;5094813;28;20124;-75
2021/03/26 05:41:48;;;;;;;45.38;26.30;;;;;;;;;;5078639;28;20036;-75
2021/03/26 05:45:18;;;;;;;47.60;28.90;;;;;;;;;;5091391;28;20044;-75
2021/03/26 05:48:11;;;;;;;43.95;28.10;;;;;;;;;;5095093;28;20043;-75
2021/03/26 05:51:03;;;;;;;49.25;28.95;;;;;;;;;;5094744;28;20072;-75
2021/03/26 05:53:50;;;;;;;47.35;29.98;;;;;;;;;;5092962;28;20035;-75
2021/03/26 05:57:05;;;;;;;56.75;32.60;;;;;;;;;;5092676;28;20039;-75
2021/03/26 06:00:00;;;;;;;50.95;31.92;;;;;;;;;;5093312;28;20063;-75
2021/03/26 06:03:19;;;;;;;43.47;28.13;;;;;;;;;;5094879;28;20040;-75
2021/03/26 06:06:37;;;;;;;40.40;26.77;;;;;;;;;;5093560;28;20039;-75
2021/03/26 06:09:52;;;;;;;50.38;28.30;;;;;;;;;;5078125;28;20032;-75
2021/03/26 06:12:55;;;;;;;43.15;26.67;;;;;;;;;;5094774;28;20054;-75
2021/03/26 06:16:30;;;;;;;33.00;22.38;;;;;;;;;;5089217;28;20081;-75
2021/03/26 06:19:36;;;;;;;36.13;23.05;;;;;;;;;;5081898;28;20039;-75
2021/03/26 06:22:38;;;;;;;42.45;25.38;;;;;;;;;;5084993;28;20111;-75
2021/03/26 06:25:19;;;;;;;40.30;26.25;;;;;;;;;;5081623;28;20490;-76
2021/03/26 06:27:59;;;;;;;50.05;27.73;;;;;;;;;;5088785;28;20083;-76
2021/03/26 06:30:29;;;;;;;45.50;28.35;;;;;;;;;;5092734;28;20039;-76
2021/03/26 06:33:48;;;;;;;44.53;27.25;;;;;;;;;;5093136;28;20039;-75
2021/03/26 06:36:22;;;;;;;45.20;27.33;;;;;;;;;;5093012;28;20128;-75
2021/03/26 06:38:57;;;;;;;47.15;28.70;;;;;;;;;;5093468;28;20381;-76
2021/03/26 06:42:00;;;;;;;42.20;26.98;;;;;;;;;;5094435;28;20032;-76
2021/03/26 06:44:50;;;;;;;47.50;31.33;;;;;;;;;;5094686;28;20028;-76
2021/03/26 06:47:52;;;;;;;45.55;28.95;;;;;;;;;;5094063;28;20032;-74
2021/03/26 06:50:42;;;;;;;40.25;28.05;;;;;;;;;;5094078;28;20066;-75
2021/03/26 06:53:45;;;;;;;41.65;28.75;;;;;;;;;;5093898;28;20027;-74
2021/03/26 06:56:56;;;;;;;44.05;30.40;;;;;;;;;;5093785;28;20034;-75
2021/03/26 06:59:36;;;;;;;43.58;27.85;;;;;;;;;;5093229;28;20028;-74
2021/03/26 07:02:39;;;;;;;37.22;26.60;;;;;;;;;;5085033;28;20028;-75
2021/03/26 07:05:27;;;;;;;40.78;26.27;;;;;;;;;;5084355;28;20074;-75
2021/03/26 07:08:07;;;;;;;41.50;27.45;;;;;;;;;;5081792;28;20024;-75
2021/03/26 07:10:35;;;;;;;42.30;28.30;;;;;;;;;;5082149;28;20435;-76
2021/03/26 07:13:12;;;;;;;41.92;28.17;;;;;;;;;;5083041;28;20035;-76
2021/03/26 07:15:43;;;;;;;46.95;29.02;;;;;;;;;;5088863;28;20466;-76
2021/03/26 07:19:03;;;;;;;39.65;27.52;;;;;;;;;;5093347;28;20039;-75
2021/03/26 07:22:06;;;;;;;46.25;30.80;;;;;;;;;;5071276;28;20028;-76
2021/03/26 07:24:42;;;;;;;51.00;29.52;;;;;;;;;;5092728;28;20047;-76
2021/03/26 07:27:46;;;;;;;41.90;29.05;;;;;;;;;;5093924;28;20051;-77
2021/03/26 07:30:20;;;;;;;41.67;29.50;;;;;;;;;;5087534;28;20140;-77
2021/03/26 07:33:01;;;;;;;47.65;28.90;;;;;;;;;;5094508;28;20439;-76
2021/03/26 07:35:42;;;;;;;45.42;27.15;;;;;;;;;;5094023;28;20157;-76
2021/03/26 07:38:22;;;;;;;40.90;27.75;;;;;;;;;;5084734;28;20044;-76
2021/03/26 07:41:13;;;;;;;44.22;26.42;;;;;;;;;;5083750;28;20210;-76
2021/03/26 07:44:05;;;;;;;36.35;26.85;;;;;;;;;;5083161;28;20029;-76
2021/03/26 07:46:53;;;;;;;36.00;25.20;;;;;;;;;;5065615;28;20040;-76
2021/03/26 07:49:55;;;;;;;40.13;26.45;;;;;;;;;;5083338;28;20021;-76
2021/03/26 07:52:45;;;;;;;41.03;26.52;;;;;;;;;;5082948;28;20446;-76
2021/03/26 07:55:35;;;;;;;40.88;25.98;;;;;;;;;;5076045;28;20036;-77
2021/03/26 07:58:38;;;;;;;45.22;26.90;;;;;;;;;;5071601;28;20051;-76
2021/03/26 08:01:46;;;;;;;38.35;25.83;;;;;;;;;;5078205;28;20029;-75
2021/03/26 08:04:29;;;;;;;39.83;28.20;;;;;;;;;;5055344;28;20044;-76
2021/03/26 08:07:00;;;;;;;38.90;27.63;;;;;;;;;;5073721;28;20074;-76
2021/03/26 08:09:53;;;;;;;37.10;26.77;;;;;;;;;;5081697;28;20478;-75
2021/03/26 08:12:47;;;;;;;45.20;29.98;;;;;;;;;;5096722;28;20034;-77
2021/03/26 08:15:24;;;;;;;39.33;28.55;;;;;;;;;;5096608;28;20066;-75
2021/03/26 08:18:14;;;;;;;44.58;31.88;;;;;;;;;;5096673;28;20462;-75
2021/03/26 08:20:52;;;;;;;48.33;32.97;;;;;;;;;;5095004;28;20032;-75
2021/03/26 08:23:37;;;;;;;45.97;33.22;;;;;;;;;;5096700;28;20040;-75
2021/03/26 08:26:44;;;;;;;49.17;34.25;;;;;;;;;;5095882;28;20374;-75
2021/03/26 08:29:26;;;;;;;50.17;35.00;;;;;;;;;;5096218;28;20079;-75
2021/03/26 08:31:57;;;;;;;51.05;31.27;;;;;;;;;;5095619;28;20297;-75
2021/03/26 08:34:32;;;;;;;48.75;29.92;;;;;;;;;;5094958;28;20036;-75
2021/03/26 08:37:19;;;;;;;40.28;29.58;;;;;;;;;;5095226;28;20481;-75
2021/03/26 08:39:48;;;;;;;48.40;28.33;;;;;;;;;;5096221;28;20032;-74
2021/03/26 08:42:21;;;;;;;36.53;26.88;;;;;;;;;;5096434;28;20040;-77
2021/03/26 08:44:50;;;;;;;46.38;30.70;;;;;;;;;;5096159;28;20135;-76
2021/03/26 08:47:25;;;;;;;39.55;27.77;;;;;;;;;;5096168;28;20097;-76
2021/03/26 08:50:06;;;;;;;43.72;28.98;;;;;;;;;;5095871;28;20466;-77
2021/03/26 08:52:45;;;;;;;45.85;28.25;;;;;;;;;;5096654;28;20035;-77
2021/03/26 08:55:41;;;;;;;41.22;28.83;;;;;;;;;;5095034;28;20036;-76
2021/03/26 08:58:30;;;;;;;40.20;27.48;;;;;;;;;;5095785;28;20473;-77
2021/03/26 09:01:10;;;;;;;37.17;26.60;;;;;;;;;;5095908;28;20039;-76
2021/03/26 09:03:58;;;;;;;35.95;25.70;;;;;;;;;;5094917;28;20079;-76
2021/03/26 09:06:47;;;;;;;34.65;25.73;;;;;;;;;;5095553;28;20024;-78
2021/03/26 09:09:51;;;;;;;36.17;25.05;;;;;;;;;;5095307;28;20050;-78
2021/03/26 09:12:38;;;;;;;29.30;20.83;;;;;;;;;;5084086;28;20044;-77
2021/03/26 09:15:38;;;;;;;39.35;22.13;;;;;;;;;;5096442;28;20032;-78
2021/03/26 09:18:03;;;;;;;30.40;20.08;;;;;;;;;;5095142;28;20044;-77
2021/03/26 09:20:41;;;;;;;32.10;21.98;;;;;;;;;;5094404;28;20127;-77
2021/03/26 09:23:32;;;;;;;29.90;19.40;;;;;;;;;;5094572;28;20067;-78
2021/03/26 09:26:19;;;;;;;25.58;18.60;;;;;;;;;;5095194;28;20032;-74
2021/03/26 09:28:52;;;;;;;25.83;19.15;;;;;;;;;;5095343;28;20055;-75
2021/03/26 09:31:29;;;;;;;30.30;20.73;;;;;;;;;;5090822;28;20036;-76
2021/03/26 09:34:01;;;;;;;29.30;19.25;;;;;;;;;;5085807;28;20106;-76
2021/03/26 09:36:42;;;;;;;24.92;19.00;;;;;;;;;;5083038;28;20076;-77
2021/03/26 09:39:15;;;;;;;22.30;15.60;;;;;;;;;;5085740;28;20032;-79
2021/03/26 09:42:23;;;;;;;18.38;13.07;;;;;;;;;;5084995;28;20036;-78
2021/03/26 09:45:16;;;;;;;17.17;12.00;;;;;;;;;;5085536;28;20051;-77
2021/03/26 09:48:11;;;;;;;20.45;12.60;;;;;;;;;;5084540;28;20060;-77
2021/03/26 09:51:11;;;;;;;15.25;11.95;;;;;;;;;;5092699;28;20392;-77
2021/03/26 09:53:40;;;;;;;22.38;13.30;;;;;;;;;;5093728;28;20051;-76
2021/03/26 09:56:39;;;;;;;18.08;13.13;;;;;;;;;;5095078;28;20047;-77
2021/03/26 09:59:15;;;;;;;17.23;11.23;;;;;;;;;;5097152;28;20427;-77
2021/03/26 10:01:55;;;;;;;21.95;12.50;;;;;;;;;;5096726;28;20040;-77
2021/03/26 10:04:30;;;;;;;15.40;11.43;;;;;;;;;;5095210;28;20044;-76
2021/03/26 10:07:32;;;;;;;17.70;11.70;;;;;;;;;;5096044;28;20028;-77
2021/03/26 10:10:43;;;;;;;18.98;11.60;;;;;;;;;;5094734;28;20436;-77
2021/03/26 10:13:03;;;;;;;20.23;10.90;;;;;;;;;;5094619;28;20032;-76
2021/03/26 10:15:43;;;;;;;20.33;11.45;;;;;;;;;;5094225;28;20048;-76
2021/03/26 10:18:13;;;;;;;17.50;12.00;;;;;;;;;;5093578;28;20545;-76
2021/03/26 10:20:47;;;;;;;13.63;10.43;;;;;;;;;;5094417;28;20028;-76
2021/03/26 10:23:24;;;;;;;13.95;10.05;;;;;;;;;;5094456;28;20377;-76
2021/03/26 10:25:55;;;;;;;15.35;11.02;;;;;;;;;;5094281;28;20035;-76
2021/03/26 10:28:29;;;;;;;16.45;11.63;;;;;;;;;;5094163;28;20051;-76
2021/03/26 10:31:31;;;;;;;15.68;11.02;;;;;;;;;;5094302;28;20110;-76
2021/03/26 10:34:01;;;;;;;16.58;11.27;;;;;;;;;;5086371;28;20052;-76
2021/03/26 10:36:50;;;;;;;15.48;10.50;;;;;;;;;;5094152;28;20038;-76
2021/03/26 10:39:24;;;;;;;14.95;10.35;;;;;;;;;;5093879;28;20036;-76
2021/03/26 10:41:55;;;;;;;13.23;9.38;;;;;;;;;;5094219;28;20088;-76
2021/03/26 10:44:28;;;;;;;14.07;10.40;;;;;;;;;;5093808;28;20119;-76
2021/03/26 10:47:18;;;;;;;16.60;11.30;;;;;;;;;;5093911;28;20390;-76
2021/03/26 10:49:50;;;;;;;14.70;10.43;;;;;;;;;;5094087;28;20040;-76
2021/03/26 10:52:25;;;;;;;14.07;9.75;;;;;;;;;;5094193;28;20043;-76
2021/03/26 10:54:59;;;;;;;14.53;9.63;;;;;;;;;;5093900;28;20040;-76
2021/03/26 10:57:24;;;;;;;15.63;10.23;;;;;;;;;;5093825;28;20035;-76
2021/03/26 10:59:52;;;;;;;11.90;9.13;;;;;;;;;;5093731;28;20513;-76
2021/03/26 11:02:33;;;;;;;14.25;8.63;;;;;;;;;;5093544;28;20036;-74
2021/03/26 11:05:24;;;;;;;14.68;9.52;;;;;;;;;;5093839;28;20458;-74
2021/03/26 11:08:12;;;;;;;14.07;8.43;;;;;;;;;;5092191;28;20043;-74
2021/03/26 11:10:42;;;;;;;14.82;8.90;;;;;;;;;;5093521;28;20036;-73
2021/03/26 11:13:29;;;;;;;12.98;9.30;;;;;;;;;;5093976;28;20046;-74
2021/03/26 11:16:01;;;;;;;15.30;8.25;;;;;;;;;;5093145;28;20046;-73
2021/03/26 11:18:33;;;;;;;9.00;6.43;;;;;;;;;;5093576;28;20461;-73
2021/03/26 11:21:01;;;;;;;11.15;7.95;;;;;;;;;;5093650;28;20028;-73
2021/03/26 11:23:30;;;;;;;11.57;8.45;;;;;;;;;;5093465;28;20028;-74
2021/03/26 11:26:04;;;;;;;12.02;7.80;;;;;;;;;;5093359;28;20040;-74
2021/03/26 11:28:40;;;;;;;11.23;7.95;;;;;;;;;;5093119;28;20047;-75
2021/03/26 11:31:24;;;;;;;11.15;7.90;;;;;;;;;;5092239;28;20432;-75
2021/03/26 11:33:58;;;;;;;11.30;7.75;;;;;;;;;;5093716;28;20077;-76
2021/03/26 11:36:48;;;;;;;11.25;8.45;;;;;;;;;;5092788;28;20131;-77
2021/03/26 11:39:41;;;;;;;12.57;7.75;;;;;;;;;;5094217;28;20048;-73
2021/03/26 11:42:06;;;;;;;15.43;7.60;;;;;;;;;;5092033;28;20032;-74
2021/03/26 11:44:44;;;;;;;13.05;8.35;;;;;;;;;;5095508;28;20474;-74
2021/03/26 11:47:25;;;;;;;14.38;7.63;;;;;;;;;;5097237;28;20120;-74
2021/03/26 11:49:57;;;;;;;10.18;7.18;;;;;;;;;;5097362;28;20040;-72
2021/03/26 11:52:23;;;;;;;11.38;7.35;;;;;;;;;;5097280;28;20039;-73
2021/03/26 11:55:06;;;;;;;11.63;7.05;;;;;;;;;;5096980;28;20067;-72
2021/03/26 11:57:41;;;;;;;11.65;7.93;;;;;;;;;;5096901;28;20042;-73
2021/03/26 12:00:37;;;;;;;9.10;6.75;;;;;;;;;;5095710;28;20122;-75
2021/03/26 12:03:20;;;;;;;10.35;6.88;;;;;;;;;;5092248;28;20194;-76
2021/03/26 12:06:17;;;;;;;11.40;7.22;;;;;;;;;;5095532;28;20075;-76
2021/03/26 12:09:00;;;;;;;13.82;7.18;;;;;;;;;;5097087;28;20398;-73
2021/03/26 12:11:53;;;;;;;15.02;7.00;;;;;;;;;;5095717;28;20232;-74
2021/03/26 12:14:33;;;;;;;10.85;7.10;;;;;;;;;;5096953;28;20032;-73
2021/03/26 12:17:24;;;;;;;12.63;6.15;;;;;;;;;;5096866;28;20118;-73
2021/03/26 12:19:59;;;;;;;9.20;6.97;;;;;;;;;;5095130;28;20048;-74
2021/03/26 12:22:30;;;;;;;10.70;6.97;;;;;;;;;;5096742;28;20127;-73
2021/03/26 12:25:18;;;;;;;11.68;6.63;;;;;;;;;;5096684;28;20085;-73
2021/03/26 12:27:52;;;;;;;10.07;6.28;;;;;;;;;;5096496;28;20135;-74
2021/03/26 12:30:27;;;;;;;12.60;6.63;;;;;;;;;;5095024;28;20040;-74
2021/03/26 12:33:07;;;;;;;8.93;6.32;;;;;;;;;;5095205;28;20297;-74
2021/03/26 12:35:35;;;;;;;12.60;7.35;;;;;;;;;;5095327;28;20173;-73
2021/03/26 12:38:27;;;;;;;15.48;6.65;;;;;;;;;;5096450;28;20121;-74
2021/03/26 12:40:58;;;;;;;10.20;6.00;;;;;;;;;;5096517;28;20077;-74
2021/03/26 12:43:29;;;;;;;8.80;6.43;;;;;;;;;;5096248;28;20044;-73
2021/03/26 12:45:56;;;;;;;9.07;5.88;;;;;;;;;;5095985;28;20043;-74
2021/03/26 12:48:34;;;;;;;7.72;6.07;;;;;;;;;;5096194;28;20032;-73
2021/03/26 12:51:21;;;;;;;7.63;5.68;;;;;;;;;;5096276;28;20119;-73
2021/03/26 12:53:54;;;;;;;;;;;;;;;;;;5096428;28;20086;-73
2021/03/26 12:56:41;;;;;;;11.43;7.18;;;;;;;;;;5095278;28;20293;-74
2021/03/26 12:59:20;;;;;;;9.95;5.70;;;;;;;;;;5095638;28;20485;-74
2021/03/26 13:02:16;;;;;;;8.60;5.47;;;;;;;;;;5094412;28;20047;-73
2021/03/26 13:05:00;;;;;;;6.68;5.15;;;;;;;;;;5095821;28;20028;-73
2021/03/26 13:07:41;;;;;;;7.05;4.97;;;;;;;;;;5095727;28;20028;-73
2021/03/26 13:10:32;;;;;;;11.27;6.10;;;;;;;;;;5094371;28;20074;-74
2021/03/26 13:13:27;;;;;;;9.45;6.65;;;;;;;;;;5095783;28;20436;-75
2021/03/26 13:16:17;;;;;;;8.65;6.25;;;;;;;;;;5095629;28;20113;-72
2021/03/26 13:18:48;;;;;;;9.50;5.97;;;;;;;;;;5095408;28;20040;-74
2021/03/26 13:21:44;;;;;;;9.98;6.47;;;;;;;;;;5095686;28;20528;-73
2021/03/26 13:24:12;;;;;;;8.98;5.95;;;;;;;;;;5095421;28;20032;-73
2021/03/26 13:26:39;;;;;;;7.50;4.97;;;;;;;;;;5095479;28;20043;-73
2021/03/26 13:29:19;;;;;;;10.52;5.80;;;;;;;;;;5095067;28;20036;-73
2021/03/26 13:31:46;;;;;;;6.53;4.63;;;;;;;;;;5094972;28;20043;-73
2021/03/26 13:34:24;;;;;;;8.52;5.20;;;;;;;;;;5094258;28;20161;-73
2021/03/26 13:36:57;;;;;;;10.05;5.25;;;;;;;;;;5095308;28;20071;-73
2021/03/26 13:39:43;;;;;;;8.07;5.75;;;;;;;;;;5093864;28;20131;-73
2021/03/26 13:42:19;;;;;;;8.07;5.07;;;;;;;;;;5075064;28;20029;-73
2021/03/26 13:44:52;;;;;;;8.85;5.10;;;;;;;;;;5074937;28;20060;-74
2021/03/26 13:47:29;;;;;;;6.57;4.60;;;;;;;;;;5074864;28;20098;-74
2021/03/26 13:50:01;;;;;;;10.38;5.03;;;;;;;;;;5074688;28;20032;-75
2021/03/26 13:52:35;;;;;;;6.18;4.28;;;;;;;;;;5074867;28;20038;-74
2021/03/26 13:55:15;;;;;;;6.40;3.92;;;;;;;;;;5074970;28;20036;-74
2021/03/26 13:57:43;;;;;;;9.80;4.43;;;;;;;;;;5074654;28;20028;-73
2021/03/26 14:00:25;;;;;;;6.47;4.13;;;;;;;;;;5074182;28;20033;-74
2021/03/26 14:03:20;;;;;;;7.45;4.20;;;;;;;;;;5074641;28;20033;-74
2021/03/26 14:05:52;;;;;;;6.60;4.07;;;;;;;;;;5073772;28;20056;-74
2021/03/26 14:08:24;;;;;;;16.52;4.18;;;;;;;;;;5073257;28;20032;-73
2021/03/26 14:11:05;;;;;;;10.18;4.22;;;;;;;;;;5082872;28;20119;-74
2021/03/26 14:13:37;;;;;;;7.25;4.93;;;;;;;;;;5094766;28;20402;-74
2021/03/26 14:16:20;;;;;;;10.93;5.82;;;;;;;;;;5094296;28;20040;-75
2021/03/26 14:19:02;;;;;;;12.15;5.32;;;;;;;;;;5094534;28;20069;-76
2021/03/26 14:21:45;;;;;;;13.32;6.45;;;;;;;;;;5094656;28;20484;-75
2021/03/26 14:24:24;;;;;;;16.42;6.70;;;;;;;;;;5093424;28;20073;-76
2021/03/26 14:27:02;;;;;;;8.98;6.00;;;;;;;;;;5094118;28;20032;-75
2021/03/26 14:29:44;;;;;;;10.48;4.90;;;;;;;;;;5092957;28;20035;-74
2021/03/26 14:32:15;;;;;;;16.38;5.65;;;;;;;;;;5094252;28;20035;-75
2021/03/26 14:35:03;;;;;;;8.98;5.80;;;;;;;;;;5093968;28;20059;-74
2021/03/26 14:37:35;;;;;;;8.77;5.65;;;;;;;;;;5093971;28;20036;-75
2021/03/26 14:40:07;;;;;;;12.10;6.13;;;;;;;;;;5093761;28;20052;-75
2021/03/26 14:42:36;;;;;;;9.07;6.47;;;;;;;;;;5092902;28;20070;-76
2021/03/26 14:45:17;;;;;;;17.67;6.55;;;;;;;;;;5093324;28;20032;-78
2021/03/26 14:47:43;;;;;;;9.27;6.57;;;;;;;;;;5093827;28;20069;-76
2021/03/26 14:50:21;;;;;;;14.70;5.72;;;;;;;;;;5093575;28;20111;-76
2021/03/26 14:52:54;;;;;;;12.52;5.93;;;;;;;;;;5094029;28;20390;-75
2021/03/26 14:55:44;;;;;;;13.55;6.38;;;;;;;;;;5093978;28;20032;-75
2021/03/26 14:58:31;;;;;;;12.38;5.97;;;;;;;;;;5093336;28;20036;-75
2021/03/26 15:01:05;;;;;;;11.50;6.80;;;;;;;;;;5093247;28;20473;-77
2021/03/26 15:03:49;;;;;;;9.05;5.55;;;;;;;;;;5093397;28;20466;-76
2021/03/26 15:06:23;;;;;;;11.05;6.22;;;;;;;;;;5093554;28;20454;-77
2021/03/26 15:09:07;;;;;;;11.60;5.90;;;;;;;;;;5092342;28;20028;-76
2021/03/26 15:11:32;;;;;;;11.18;6.82;;;;;;;;;;5093574;28;20445;-77
2021/03/26 15:14:33;;;;;;;11.23;6.38;;;;;;;;;;5092424;28;20074;-76
2021/03/26 15:17:25;;;;;;;10.38;5.35;;;;;;;;;;5084691;28;20481;-76
2021/03/26 15:19:53;;;;;;;8.75;5.60;;;;;;;;;;5091897;28;20432;-76
2021/03/26 15:22:31;;;;;;;11.05;5.55;;;;;;;;;;5092206;28;20571;-76
2021/03/26 15:25:20;;;;;;;8.25;4.82;;;;;;;;;;5093874;28;20505;-77
2021/03/26 15:28:12;;;;;;;9.77;5.57;;;;;;;;;;5093856;28;20093;-77
2021/03/26 15:31:15;;;;;;;12.55;5.45;;;;;;;;;;5093310;28;20048;-77
2021/03/26 15:34:04;;;;;;;10.85;5.43;;;;;;;;;;5092316;28;20024;-77
2021/03/26 15:36:39;;;;;;;14.65;5.25;;;;;;;;;;5089687;28;20464;-76
2021/03/26 15:39:22;;;;;;;9.98;4.90;;;;;;;;;;5093142;28;20390;-77
2021/03/26 15:41:55;;;;;;;8.77;4.80;;;;;;;;;;5094078;28;20076;-77